createdAt,value
2019-02-06T00:01:42.472Z,25.83
2019-02-06T00:04:11.758Z,26.63
2019-02-06T00:06:42.479Z,25.53
2019-02-06T00:09:13.950Z,25.47
2019-02-06T00:11:43.339Z,26.20
2019-02-06T00:14:13.967Z,26.57
2019-02-06T00:16:43.266Z,26.17
2019-02-06T00:19:12.563Z,26.80
2019-02-06T00:21:42.134Z,25.53
2019-02-06T00:24:11.438Z,26.77
2019-02-06T00:26:40.775Z,26.17
2019-02-06T00:29:10.078Z,25.40
2019-02-06T00:31:39.487Z,25.50
2019-02-06T00:34:08.787Z,26.07
2019-02-06T00:36:38.111Z,25.30
2019-02-06T00:39:08.695Z,25.40
2019-02-06T00:41:37.999Z,25.07
2019-02-06T00:44:07.315Z,25.93
2019-02-06T00:46:36.637Z,26.00
2019-02-06T00:49:05.936Z,25.17
2019-02-06T00:51:35.261Z,26.27
2019-02-06T00:54:04.726Z,25.47
2019-02-06T00:56:34.023Z,24.03
2019-02-06T00:59:03.528Z,26.00
2019-02-06T01:01:33.795Z,24.70
2019-02-06T01:04:03.127Z,26.30
2019-02-06T01:06:32.423Z,24.50
2019-02-06T01:09:01.726Z,24.97
2019-02-06T01:11:32.293Z,24.40
2019-02-06T01:14:01.595Z,24.43
2019-02-06T01:16:30.911Z,26.03
2019-02-06T01:19:00.222Z,23.80
2019-02-06T01:21:29.519Z,24.40
2019-02-06T01:23:58.831Z,24.77
2019-02-06T01:26:28.199Z,24.60
2019-02-06T01:28:57.519Z,24.03
2019-02-06T01:31:27.596Z,24.03
2019-02-06T01:33:56.899Z,26.47
2019-02-06T01:36:26.679Z,26.13
2019-02-06T01:38:57.054Z,28.43
2019-02-06T01:41:26.345Z,29.90
2019-02-06T01:43:56.623Z,30.07
2019-02-06T01:46:25.918Z,31.20
2019-02-06T01:48:55.253Z,30.33
2019-02-06T01:51:25.022Z,33.90
2019-02-06T01:53:54.602Z,35.80
2019-02-06T01:56:23.896Z,37.10
2019-02-06T01:58:53.203Z,36.83
2019-02-06T02:01:23.595Z,36.00
2019-02-06T02:03:52.918Z,37.03
2019-02-06T02:06:22.596Z,39.47
2019-02-06T02:08:53.537Z,40.17
2019-02-06T02:11:22.908Z,39.20
2019-02-06T02:13:52.224Z,39.63
2019-02-06T02:16:21.522Z,40.00
2019-02-06T02:18:50.837Z,38.57
2019-02-06T02:21:20.629Z,40.47
2019-02-06T02:23:49.955Z,37.63
2019-02-06T02:26:19.255Z,40.37
2019-02-06T02:28:48.570Z,39.70
2019-02-06T02:31:17.864Z,38.80
2019-02-06T02:33:47.195Z,40.07
2019-02-06T02:36:16.793Z,39.10
2019-02-06T02:38:46.176Z,38.23
2019-02-06T02:41:15.466Z,36.87
2019-02-06T02:43:44.778Z,36.93
2019-02-06T02:46:14.072Z,37.97
2019-02-06T02:48:43.986Z,39.83
2019-02-06T02:51:13.590Z,38.53
2019-02-06T02:53:42.895Z,39.63
2019-02-06T02:56:12.499Z,38.67
2019-02-06T02:58:41.822Z,39.23
2019-02-06T03:01:21.671Z,39.60
2019-02-06T03:03:53.081Z,40.00
2019-02-06T03:06:28.101Z,39.83
2019-02-06T03:08:54.866Z,42.23
2019-02-06T03:11:24.176Z,38.83
2019-02-06T03:13:53.472Z,39.73
2019-02-06T03:16:22.945Z,40.63
2019-02-06T03:18:52.417Z,39.50
2019-02-06T03:21:21.736Z,40.43
2019-02-06T03:23:51.033Z,39.10
2019-02-06T03:26:20.531Z,39.47
2019-02-06T03:28:49.900Z,41.00
2019-02-06T03:31:19.208Z,41.90
2019-02-06T03:33:48.791Z,38.47
2019-02-06T03:36:18.091Z,39.97
2019-02-06T03:38:47.388Z,39.90
2019-02-06T03:41:16.713Z,39.93
2019-02-06T03:43:46.006Z,39.40
2019-02-06T03:46:15.347Z,39.70
2019-02-06T03:48:44.999Z,40.67
2019-02-06T03:51:15.296Z,42.07
2019-02-06T03:53:44.611Z,39.43
2019-02-06T03:56:13.919Z,40.10
2019-02-06T03:58:43.212Z,40.03
2019-02-06T04:01:12.518Z,42.30
2019-02-06T04:03:42.297Z,38.53
2019-02-06T04:06:11.598Z,39.83
2019-02-06T04:08:40.989Z,42.47
2019-02-06T04:11:10.303Z,38.93
2019-02-06T04:13:39.595Z,43.17
2019-02-06T04:16:08.924Z,40.17
2019-02-06T04:18:38.226Z,42.40
2019-02-06T04:21:07.556Z,39.93
2019-02-06T04:23:36.913Z,42.17
2019-02-06T04:26:06.394Z,42.97
2019-02-06T04:28:35.693Z,43.33
2019-02-06T04:31:05.017Z,42.40
2019-02-06T04:33:34.483Z,44.07
2019-02-06T04:36:04.123Z,43.73
2019-02-06T04:38:33.455Z,40.73
2019-02-06T04:41:02.809Z,41.53
2019-02-06T04:43:32.115Z,42.60
2019-02-06T04:46:01.423Z,41.43
2019-02-06T04:48:32.248Z,40.80
2019-02-06T04:51:01.731Z,41.70
2019-02-06T04:53:31.078Z,40.93
2019-02-06T04:56:01.656Z,41.37
2019-02-06T04:58:30.975Z,38.57
2019-02-06T05:01:00.275Z,53.27
2019-02-06T05:03:29.591Z,36.10
2019-02-06T05:05:58.883Z,36.90
2019-02-06T05:08:28.195Z,37.83
2019-02-06T05:10:57.486Z,36.57
2019-02-06T05:13:26.809Z,37.30
2019-02-06T05:15:56.105Z,37.47
2019-02-06T05:18:25.486Z,39.23
2019-02-06T05:20:54.786Z,35.67
2019-02-06T05:23:24.111Z,37.57
2019-02-06T05:25:53.424Z,34.53
2019-02-06T05:28:22.736Z,34.53
2019-02-06T05:30:52.045Z,35.30
2019-02-06T05:33:21.638Z,35.83
2019-02-06T05:35:51.406Z,33.23
2019-02-06T05:38:20.738Z,33.80
2019-02-06T05:40:50.041Z,33.10
2019-02-06T05:43:19.363Z,35.30
2019-02-06T05:45:48.659Z,34.97
2019-02-06T05:48:17.991Z,32.13
2019-02-06T05:50:47.660Z,34.27
2019-02-06T05:53:16.958Z,35.60
2019-02-06T05:55:46.265Z,33.10
2019-02-06T05:58:15.575Z,34.07
2019-02-06T06:00:46.366Z,31.23
2019-02-06T06:03:15.829Z,31.20
2019-02-06T06:05:45.191Z,30.73
2019-02-06T06:08:14.495Z,30.67
2019-02-06T06:10:43.792Z,31.90
2019-02-06T06:13:13.129Z,30.97
2019-02-06T06:15:42.454Z,30.70
2019-02-06T06:18:11.804Z,30.63
2019-02-06T06:20:41.111Z,30.43
2019-02-06T06:23:10.774Z,30.40
2019-02-06T06:25:40.075Z,29.33
2019-02-06T06:28:09.540Z,30.37
2019-02-06T06:30:38.866Z,29.90
2019-02-06T06:33:08.201Z,26.60
2019-02-06T06:35:37.522Z,26.60
2019-02-06T06:38:06.837Z,26.20
2019-02-06T06:40:37.216Z,26.97
2019-02-06T06:43:06.630Z,23.70
2019-02-06T06:45:36.021Z,25.40
2019-02-06T06:48:05.487Z,25.63
2019-02-06T06:50:34.842Z,26.30
2019-02-06T06:53:04.746Z,26.50
2019-02-06T06:55:35.234Z,25.43
2019-02-06T06:58:05.012Z,24.97
2019-02-06T07:00:34.313Z,23.83
2019-02-06T07:03:03.674Z,24.00
2019-02-06T07:05:33.946Z,24.33
2019-02-06T07:08:10.150Z,23.47
2019-02-06T07:10:34.702Z,23.70
2019-02-06T07:13:04.183Z,24.20
2019-02-06T07:15:34.610Z,24.47
2019-02-06T07:18:04.376Z,23.13
2019-02-06T07:20:33.702Z,23.77
2019-02-06T07:23:08.775Z,22.07
2019-02-06T07:25:39.419Z,21.90
2019-02-06T07:28:08.734Z,21.43
2019-02-06T07:30:38.102Z,20.27
2019-02-06T07:33:07.406Z,20.07
2019-02-06T07:35:36.732Z,20.27
2019-02-06T07:38:06.049Z,19.37
2019-02-06T07:40:35.368Z,20.00
2019-02-06T07:43:04.662Z,19.20
2019-02-06T07:45:33.966Z,18.97
2019-02-06T07:48:03.285Z,18.30
2019-02-06T07:50:34.390Z,17.27
2019-02-06T07:53:03.685Z,18.77
2019-02-06T07:55:33.009Z,16.83
2019-02-06T07:58:02.302Z,17.53
2019-02-06T08:00:31.624Z,17.93
2019-02-06T08:03:01.093Z,17.37
2019-02-06T08:05:30.574Z,17.50
2019-02-06T08:08:00.225Z,16.63
2019-02-06T08:10:32.133Z,17.87
2019-02-06T08:13:01.438Z,15.73
2019-02-06T08:15:31.378Z,15.97
2019-02-06T08:18:00.706Z,15.77
2019-02-06T08:20:30.009Z,15.23
2019-02-06T08:22:59.379Z,14.07
2019-02-06T08:25:28.765Z,16.00
2019-02-06T08:27:59.319Z,15.10
2019-02-06T08:30:31.523Z,15.07
2019-02-06T08:33:00.953Z,15.43
2019-02-06T08:35:30.618Z,15.50
2019-02-06T08:37:59.948Z,14.53
2019-02-06T08:40:31.097Z,14.37
2019-02-06T08:43:01.130Z,12.60
2019-02-06T08:45:30.424Z,13.50
2019-02-06T08:47:59.726Z,14.00
2019-02-06T08:50:29.460Z,12.83
2019-02-06T08:52:58.774Z,12.93
2019-02-06T08:55:32.254Z,13.33
2019-02-06T08:58:02.507Z,12.53
2019-02-06T09:00:37.354Z,12.73
2019-02-06T09:03:08.058Z,11.83
2019-02-06T09:05:37.354Z,12.73
2019-02-06T09:08:07.315Z,12.20
2019-02-06T09:10:36.759Z,12.17
2019-02-06T09:13:06.478Z,12.23
2019-02-06T09:15:35.818Z,12.10
2019-02-06T09:18:05.898Z,12.50
2019-02-06T09:20:35.265Z,12.43
2019-02-06T09:23:04.853Z,12.63
2019-02-06T09:25:34.297Z,11.50
2019-02-06T09:28:03.759Z,12.57
2019-02-06T09:30:36.242Z,12.07
2019-02-06T09:33:06.114Z,12.40
2019-02-06T09:35:35.582Z,11.40
2019-02-06T09:38:05.089Z,12.10
2019-02-06T09:40:34.438Z,11.80
2019-02-06T09:43:04.001Z,12.30
2019-02-06T09:45:33.288Z,12.27
2019-02-06T09:48:03.246Z,11.93
2019-02-06T09:50:35.176Z,12.70
2019-02-06T09:53:05.054Z,11.57
2019-02-06T09:55:34.354Z,11.70
2019-02-06T09:58:03.977Z,11.83
2019-02-06T10:00:36.064Z,12.23
2019-02-06T10:03:06.223Z,11.87
2019-02-06T10:05:35.694Z,11.87
2019-02-06T10:08:05.182Z,11.77
2019-02-06T10:10:34.485Z,12.80
2019-02-06T10:13:03.800Z,11.70
2019-02-06T10:15:35.359Z,12.10
2019-02-06T10:18:05.963Z,12.53
2019-02-06T10:20:46.736Z,12.27
2019-02-06T10:23:16.189Z,12.17
2019-02-06T10:25:45.556Z,11.83
2019-02-06T10:28:14.849Z,12.80
2019-02-06T10:30:46.771Z,12.60
2019-02-06T10:33:18.714Z,12.10
2019-02-06T10:35:47.170Z,12.53
2019-02-06T10:38:17.374Z,12.00
2019-02-06T10:40:46.712Z,12.27
2019-02-06T10:43:16.517Z,11.60
2019-02-06T10:45:45.814Z,12.63
2019-02-06T10:48:15.114Z,11.77
2019-02-06T10:50:47.059Z,12.70
2019-02-06T10:53:16.714Z,12.47
2019-02-06T10:55:46.015Z,12.50
2019-02-06T10:58:15.326Z,11.93
2019-02-06T11:00:53.250Z,12.83
2019-02-06T11:03:22.802Z,11.57
2019-02-06T11:05:52.102Z,11.67
2019-02-06T11:08:21.747Z,12.40
2019-02-06T11:10:51.213Z,11.43
2019-02-06T11:13:20.622Z,12.77
2019-02-06T11:15:49.927Z,11.50
2019-02-06T11:18:19.218Z,13.77
2019-02-06T11:20:48.521Z,11.97
2019-02-06T11:23:17.824Z,12.33
2019-02-06T11:25:47.118Z,12.10
2019-02-06T11:28:16.695Z,12.10
2019-02-06T11:30:46.022Z,13.53
2019-02-06T11:33:15.574Z,12.63
2019-02-06T11:35:45.197Z,12.63
2019-02-06T11:38:14.505Z,11.43
2019-02-06T11:40:43.791Z,12.07
2019-02-06T11:43:13.501Z,11.63
2019-02-06T11:45:42.981Z,12.13
2019-02-06T11:48:12.321Z,11.67
2019-02-06T11:50:42.612Z,11.53
2019-02-06T11:53:14.418Z,11.57
2019-02-06T11:55:43.744Z,12.00
2019-02-06T11:58:13.065Z,12.33
2019-02-06T12:03:41.807Z,11.60
2019-02-06T12:06:11.678Z,12.47
2019-02-06T12:08:41.003Z,13.03
2019-02-06T12:11:11.071Z,12.27
2019-02-06T12:13:40.420Z,13.33
2019-02-06T12:16:09.775Z,13.73
2019-02-06T12:18:39.250Z,12.40
2019-02-06T12:21:09.022Z,12.23
2019-02-06T12:23:38.330Z,11.93
2019-02-06T12:26:07.694Z,13.03
2019-02-06T12:28:37.003Z,11.60
2019-02-06T12:31:06.449Z,12.80
2019-02-06T12:33:36.735Z,11.63
2019-02-06T12:36:06.231Z,11.97
2019-02-06T12:38:35.542Z,13.20
2019-02-06T12:41:05.471Z,12.23
2019-02-06T12:43:34.782Z,12.33
2019-02-06T12:46:04.726Z,13.40
2019-02-06T12:48:34.030Z,12.13
2019-02-06T12:51:03.347Z,11.13
2019-02-06T12:53:32.707Z,11.73
2019-02-06T12:56:02.121Z,12.13
2019-02-06T12:58:31.520Z,11.30
2019-02-06T13:01:00.911Z,12.30
2019-02-06T13:03:30.210Z,12.97
2019-02-06T13:05:59.519Z,12.13
2019-02-06T13:08:28.832Z,12.93
2019-02-06T13:10:58.497Z,12.87
2019-02-06T13:13:27.806Z,13.03
2019-02-06T13:15:57.094Z,13.63
2019-02-06T13:18:26.407Z,12.77
2019-02-06T13:20:55.722Z,12.77
2019-02-06T13:23:25.037Z,12.63
2019-02-06T13:25:54.806Z,12.77
2019-02-06T13:28:24.134Z,12.17
2019-02-06T13:30:53.448Z,13.60
2019-02-06T13:33:22.770Z,13.90
2019-02-06T13:35:52.074Z,13.03
2019-02-06T13:38:23.220Z,13.70
2019-02-06T13:40:52.406Z,13.57
2019-02-06T13:43:21.726Z,13.00
2019-02-06T13:45:51.118Z,13.07
2019-02-06T13:48:20.440Z,13.50
2019-02-06T13:50:49.920Z,14.60
2019-02-06T13:53:19.262Z,13.87
2019-02-06T13:55:49.284Z,13.10
2019-02-06T13:58:20.261Z,14.50
2019-02-06T14:00:52.266Z,14.33
2019-02-06T14:03:20.768Z,13.83
2019-02-06T14:05:50.163Z,14.07
2019-02-06T14:08:20.694Z,14.33
2019-02-06T14:10:58.538Z,14.07
2019-02-06T14:13:21.270Z,14.07
2019-02-06T14:15:50.664Z,16.27
2019-02-06T14:18:20.033Z,16.60
2019-02-06T14:20:50.284Z,15.17
2019-02-06T14:23:26.130Z,16.33
2019-02-06T14:25:58.531Z,16.43
2019-02-06T14:28:48.775Z,17.53
2019-02-06T14:31:40.680Z,18.63
2019-02-06T14:34:18.982Z,18.10
2019-02-06T14:37:03.421Z,18.70
2019-02-06T14:39:44.562Z,18.43
2019-02-06T14:42:29.263Z,18.73
2019-02-06T14:45:16.741Z,20.70
2019-02-06T14:48:06.843Z,19.27
2019-02-06T14:50:50.846Z,19.70
2019-02-06T14:53:23.279Z,20.00
2019-02-06T14:56:15.210Z,21.47
2019-02-06T14:59:09.878Z,21.60
2019-02-06T15:01:48.086Z,20.10
2019-02-06T15:04:26.488Z,20.43
2019-02-06T15:07:04.709Z,21.30
2019-02-06T15:10:01.326Z,20.97
2019-02-06T15:12:48.765Z,21.20
2019-02-06T15:15:41.758Z,22.47
2019-02-06T15:18:19.845Z,23.23
2019-02-06T15:21:19.279Z,26.30
2019-02-06T15:24:24.822Z,29.73
2019-02-06T15:27:02.663Z,25.50
2019-02-06T15:29:51.156Z,26.37
2019-02-06T15:32:23.562Z,25.27
2019-02-06T15:35:18.762Z,32.53
2019-02-06T15:37:57.878Z,28.57
2019-02-06T15:40:39.339Z,27.53
2019-02-06T15:43:32.403Z,31.93
2019-02-06T15:46:25.411Z,24.43
2019-02-06T15:49:12.630Z,23.80
2019-02-06T15:51:57.211Z,23.60
2019-02-06T15:54:52.030Z,25.43
2019-02-06T15:57:33.602Z,23.53
2019-02-06T16:00:22.535Z,23.00
2019-02-06T16:02:54.918Z,24.70
2019-02-06T16:05:51.975Z,25.53
2019-02-06T16:08:39.505Z,25.73
2019-02-06T16:11:17.763Z,25.23
2019-02-06T16:14:01.582Z,24.67
2019-02-06T16:16:42.963Z,47.67
2019-02-06T16:19:37.902Z,29.20
2019-02-06T16:22:21.598Z,26.47
2019-02-06T16:25:12.943Z,28.77
2019-02-06T16:28:03.346Z,27.83
2019-02-06T16:30:52.411Z,27.83
2019-02-06T16:33:33.639Z,32.13
2019-02-06T16:36:20.747Z,28.33
2019-02-06T16:39:02.072Z,28.07
2019-02-06T16:41:52.819Z,31.17
2019-02-06T16:44:25.662Z,31.70
2019-02-06T16:47:25.529Z,29.07
2019-02-06T16:50:03.674Z,28.40
2019-02-06T16:52:39.699Z,30.17
2019-02-06T16:55:31.130Z,29.63
2019-02-06T16:58:09.054Z,28.37
2019-02-06T17:00:50.222Z,27.57
2019-02-06T17:03:40.503Z,27.57
2019-02-06T17:06:28.142Z,27.63
2019-02-06T17:09:04.277Z,28.80
2019-02-06T17:11:42.164Z,32.23
2019-02-06T17:14:20.502Z,29.37
2019-02-06T17:16:58.534Z,29.10
2019-02-06T17:19:42.705Z,30.47
2019-02-06T17:22:40.538Z,30.83
2019-02-06T17:25:15.578Z,34.20
2019-02-06T17:28:08.847Z,31.23
2019-02-06T17:30:46.918Z,30.97
2019-02-06T17:33:34.166Z,31.77
2019-02-06T17:36:24.593Z,31.90
2019-02-06T17:39:02.007Z,31.27
2019-02-06T17:41:35.591Z,31.27
2019-02-06T17:44:23.152Z,31.07
2019-02-06T17:46:58.330Z,31.67
2019-02-06T17:49:42.423Z,32.87
2019-02-06T17:52:31.215Z,32.13
2019-02-06T17:55:18.127Z,31.97
2019-02-06T17:57:49.169Z,32.90
2019-02-06T18:00:28.388Z,34.50
2019-02-06T18:02:59.501Z,33.97
2019-02-06T18:05:28.801Z,34.50
2019-02-06T18:07:58.267Z,33.17
2019-02-06T18:10:27.577Z,33.87
2019-02-06T18:12:57.016Z,34.17
2019-02-06T18:15:26.324Z,34.40
2019-02-06T18:17:58.959Z,32.03
2019-02-06T18:20:28.261Z,32.23
2019-02-06T18:22:57.734Z,31.43
2019-02-06T18:25:27.050Z,31.43
2019-02-06T18:27:56.597Z,31.40
2019-02-06T18:30:28.273Z,31.07
2019-02-06T18:32:59.553Z,32.03
2019-02-06T18:35:29.358Z,29.13
2019-02-06T18:37:58.826Z,31.47
2019-02-06T18:40:28.580Z,29.53
2019-02-06T18:42:58.169Z,30.30
2019-02-06T18:45:28.023Z,29.57
2019-02-06T18:48:01.526Z,29.10
2019-02-06T18:50:33.299Z,28.10
2019-02-06T18:53:03.471Z,28.50
2019-02-06T18:55:33.133Z,28.60
2019-02-06T18:58:02.588Z,28.20
2019-02-06T19:00:38.037Z,25.90
2019-02-06T19:03:18.772Z,27.40
2019-02-06T19:05:48.782Z,27.23
2019-02-06T19:08:18.231Z,28.77
2019-02-06T19:10:48.078Z,26.17
2019-02-06T19:13:17.443Z,25.80
2019-02-06T19:15:56.155Z,26.00
2019-02-06T19:18:17.834Z,26.70
2019-02-06T19:20:47.223Z,26.73
2019-02-06T19:23:16.598Z,25.67
2019-02-06T19:25:45.910Z,27.83
2019-02-06T19:28:15.514Z,27.27
2019-02-06T19:30:46.041Z,27.27
2019-02-06T19:33:17.142Z,26.30
2019-02-06T19:35:46.339Z,26.33
2019-02-06T19:38:15.722Z,26.87
2019-02-06T19:40:45.019Z,25.93
2019-02-06T19:43:14.401Z,27.27
2019-02-06T19:45:43.782Z,28.23
2019-02-06T19:48:16.125Z,28.53
2019-02-06T19:50:46.255Z,27.10
2019-02-06T19:53:15.626Z,28.33
2019-02-06T19:55:45.013Z,28.80
2019-02-06T19:58:14.404Z,29.63
2019-02-06T20:00:44.080Z,29.73
2019-02-06T20:03:13.662Z,29.80
2019-02-06T20:05:43.041Z,29.97
2019-02-06T20:08:14.303Z,28.40
2019-02-06T20:10:51.657Z,29.53
2019-02-06T20:13:21.058Z,29.73
2019-02-06T20:15:50.857Z,31.53
2019-02-06T20:18:20.179Z,31.97
2019-02-06T20:20:49.571Z,32.03
2019-02-06T20:23:18.917Z,32.87
2019-02-06T20:25:48.288Z,35.20
2019-02-06T20:28:17.609Z,31.83
2019-02-06T20:30:48.233Z,34.87
2019-02-06T20:33:18.164Z,34.43
2019-02-06T20:35:47.533Z,33.47
2019-02-06T20:38:16.838Z,33.60
2019-02-06T20:40:46.207Z,38.10
2019-02-06T20:43:22.090Z,37.40
2019-02-06T20:45:47.154Z,35.93
2019-02-06T20:48:16.454Z,36.83
2019-02-06T20:50:45.832Z,36.90
2019-02-06T20:53:15.247Z,37.53
2019-02-06T20:55:44.631Z,39.80
2019-02-06T20:58:14.021Z,37.13
2019-02-06T21:00:43.391Z,39.03
2019-02-06T21:03:12.686Z,37.47
2019-02-06T21:05:42.368Z,38.70
2019-02-06T21:08:11.686Z,38.93
2019-02-06T21:10:41.961Z,40.10
2019-02-06T21:13:11.329Z,40.20
2019-02-06T21:15:40.634Z,41.27
2019-02-06T21:18:09.931Z,38.47
2019-02-06T21:20:39.714Z,40.37
2019-02-06T21:23:09.012Z,41.63
2019-02-06T21:25:38.339Z,41.03
2019-02-06T21:28:07.778Z,42.73
2019-02-06T21:30:41.818Z,44.07
2019-02-06T21:33:11.217Z,46.20
2019-02-06T21:35:40.890Z,43.20
2019-02-06T21:38:10.213Z,45.40
2019-02-06T21:40:39.607Z,43.90
2019-02-06T21:43:09.966Z,41.47
2019-02-06T21:45:39.265Z,41.17
2019-02-06T21:48:08.582Z,41.53
2019-02-06T21:50:38.278Z,39.50
2019-02-06T21:53:07.570Z,40.17
2019-02-06T21:55:36.878Z,39.27
2019-02-06T21:58:06.174Z,38.63
2019-02-06T22:00:40.958Z,39.73
2019-02-06T22:03:10.901Z,41.00
2019-02-06T22:05:40.255Z,41.60
2019-02-06T22:08:09.569Z,40.33
2019-02-06T22:10:38.951Z,40.40
2019-02-06T22:13:09.296Z,40.17
2019-02-06T22:15:38.694Z,40.63
2019-02-06T22:18:08.462Z,42.00
2019-02-06T22:20:37.766Z,40.53
2019-02-06T22:23:07.078Z,42.50
2019-02-06T22:25:36.459Z,39.53
2019-02-06T22:28:05.751Z,40.83
2019-02-06T22:30:35.077Z,40.20
2019-02-06T22:33:04.876Z,41.50
2019-02-06T22:35:34.209Z,41.13
2019-02-06T22:38:03.682Z,40.53
2019-02-06T22:40:32.991Z,40.30
2019-02-06T22:43:02.285Z,42.73
2019-02-06T22:45:31.609Z,40.83
2019-02-06T22:48:01.394Z,41.67
2019-02-06T22:50:30.771Z,43.13
2019-02-06T22:53:00.072Z,42.23
2019-02-06T22:55:29.442Z,42.30
2019-02-06T22:57:58.762Z,42.87
2019-02-06T23:00:44.399Z,42.80
2019-02-06T23:03:14.333Z,42.33
2019-02-06T23:05:44.610Z,44.30
2019-02-06T23:08:13.902Z,46.47
2019-02-06T23:10:43.224Z,45.90
2019-02-06T23:13:12.718Z,47.20
2019-02-06T23:15:42.021Z,46.47
2019-02-06T23:18:11.314Z,45.33
2019-02-06T23:20:40.710Z,49.37
2019-02-06T23:23:10.010Z,48.53
2019-02-06T23:25:39.333Z,49.03
2019-02-06T23:28:09.170Z,48.00
2019-02-06T23:30:38.483Z,49.33
2019-02-06T23:33:07.780Z,48.87
2019-02-06T23:35:37.080Z,49.93
2019-02-06T23:38:06.393Z,53.03
2019-02-06T23:40:35.691Z,50.67
2019-02-06T23:43:05.542Z,50.37
2019-02-06T23:45:34.935Z,52.50
2019-02-06T23:48:04.599Z,49.93
2019-02-06T23:50:33.903Z,51.23
2019-02-06T23:53:03.288Z,50.90
2019-02-06T23:55:32.578Z,51.63
2019-02-06T23:58:02.368Z,52.67
